Estación de Morza
Ultimos registro cada 15 minutos 40
| N° | Estación | Fecha / Hora | Temperatura | Humedad | Lluvia | Velocidad | Dirección | Radiación | Presion |
| 40 | Morza | 07-05-2026 09:45 | 9,3 | 95 | 0 | 0,4 | 253 | 79 | 1025,2 |
| 39 | Morza | 07-05-2026 09:30 | 9,1 | 96 | 0 | 0,4 | 261 | 70 | 1024,9 |
| 38 | Morza | 07-05-2026 09:15 | 9,1 | 96 | 0 | 0 | 294 | 69 | 1024,9 |
| 37 | Morza | 07-05-2026 09:00 | 8,9 | 96 | 0 | 0,4 | 302 | 54 | 1024,8 |
| 36 | Morza | 07-05-2026 08:45 | 8,7 | 96 | 0 | 0,4 | 274 | 37 | 1024,6 |
| 35 | Morza | 07-05-2026 08:30 | 8,7 | 96 | 0 | 0,4 | 275 | 28 | 1024,7 |
| 34 | Morza | 07-05-2026 08:15 | 8,5 | 96 | 0 | 0,9 | 293 | 28 | 1024,5 |
| 33 | Morza | 07-05-2026 08:00 | 8,1 | 96 | 0 | 0 | 351 | 11 | 1024,2 |
| 32 | Morza | 07-05-2026 07:45 | 7,7 | 95 | 0 | 0 | 351 | 5 | 1023,7 |
| 31 | Morza | 07-05-2026 07:30 | 7,8 | 94 | 0 | 0 | 316 | 0 | 1023,5 |
| 30 | Morza | 07-05-2026 07:15 | 7,9 | 93 | 0 | 0 | 316 | 0 | 1023,6 |
| 29 | Morza | 07-05-2026 07:00 | 8,4 | 94 | 0 | 0 | 316 | 0 | 1023,4 |
| 28 | Morza | 07-05-2026 06:45 | 8,7 | 94 | 0 | 0 | 316 | 0 | 1023,7 |
| 27 | Morza | 07-05-2026 06:30 | 9,1 | 94 | 0 | 0 | 267 | 0 | 1023,6 |
| 26 | Morza | 07-05-2026 06:15 | 9,1 | 94 | 0 | 0 | 133 | 0 | 1023,7 |
| 25 | Morza | 07-05-2026 06:00 | 9,1 | 94 | 0 | 0 | 172 | 0 | 1023,2 |
| 24 | Morza | 07-05-2026 05:45 | 9,1 | 94 | 0 | 0 | 126 | 0 | 1023,2 |
| 23 | Morza | 07-05-2026 05:30 | 9,1 | 94 | 0 | 0 | 227 | 0 | 1023,1 |
| 22 | Morza | 07-05-2026 05:15 | 8,9 | 94 | 0 | 0,4 | 219 | 0 | 1022,7 |
| 21 | Morza | 07-05-2026 05:00 | 8,9 | 94 | 0 | 0 | 67 | 0 | 1022,6 |
| 20 | Morza | 07-05-2026 04:45 | 9,2 | 94 | 0 | 0,4 | 300 | 0 | 1022,3 |
| 19 | Morza | 07-05-2026 04:30 | 9,2 | 94 | 0 | 0 | 135 | 0 | 1022,3 |
| 18 | Morza | 07-05-2026 04:15 | 9,3 | 94 | 0 | 0 | 303 | 0 | 1021,9 |
| 17 | Morza | 07-05-2026 04:00 | 9,3 | 94 | 0 | 0 | 292 | 0 | 1022 |
| 16 | Morza | 07-05-2026 03:45 | 9,4 | 94 | 0 | 0 | 292 | 0 | 1022,1 |
| 15 | Morza | 07-05-2026 03:30 | 9,4 | 94 | 0 | 0,4 | 298 | 0 | 1022,1 |
| 14 | Morza | 07-05-2026 03:15 | 9,5 | 94 | 0 | 0 | 24 | 0 | 1022,1 |
| 13 | Morza | 07-05-2026 03:00 | 9,6 | 94 | 0 | 0,4 | 253 | 0 | 1022,1 |
| 12 | Morza | 07-05-2026 02:45 | 9,7 | 94 | 0 | 0,4 | 258 | 0 | 1022 |
| 11 | Morza | 07-05-2026 02:30 | 9,7 | 94 | 0 | 0 | 280 | 0 | 1022 |
| 10 | Morza | 07-05-2026 02:15 | 9,7 | 94 | 0 | 0 | 280 | 0 | 1021,9 |
| 9 | Morza | 07-05-2026 02:00 | 9,8 | 94 | 0 | 0 | 266 | 0 | 1021,6 |
| 8 | Morza | 07-05-2026 01:45 | 9,9 | 94 | 0 | 0,4 | 280 | 0 | 1021,6 |
| 7 | Morza | 07-05-2026 01:30 | 9,9 | 94 | 0 | 0 | 221 | 0 | 1021,3 |
| 6 | Morza | 07-05-2026 01:15 | 10 | 94 | 0 | 0 | 295 | 0 | 1021,2 |
| 5 | Morza | 07-05-2026 01:00 | 10,1 | 94 | 0 | 0 | 266 | 0 | 1021,2 |
| 4 | Morza | 07-05-2026 00:45 | 10,1 | 94 | 0 | 0 | 261 | 0 | 1021,2 |
| 3 | Morza | 07-05-2026 00:30 | 10,2 | 94 | 0 | 0 | 245 | 0 | 1021,4 |
| 2 | Morza | 07-05-2026 00:15 | 10,3 | 95 | 0 | 0 | 6 | 0 | 1021,1 |
| 1 | Morza | 07-05-2026 00:00 | 10,5 | 95 | 0 | 0,4 | 286 | 0 | 1021 |